createdAt,value
2023-03-26T00:00:29.474Z,102511.07
2023-03-26T00:03:04.548Z,102512.73
2023-03-26T00:05:21.227Z,102509.84
2023-03-26T00:07:37.714Z,102508.36
2023-03-26T00:09:51.744Z,102506.86
2023-03-26T00:12:05.375Z,102510.66
2023-03-26T00:14:28.246Z,102508.79
2023-03-26T00:16:45.534Z,102508.58
2023-03-26T00:19:11.103Z,102506.01
2023-03-26T00:21:29.178Z,102504.59
2023-03-26T00:23:44.266Z,102501.96
2023-03-26T00:26:02.171Z,102502.63
2023-03-26T00:28:18.505Z,102502.34
2023-03-26T00:30:38.770Z,102503.20
2023-03-26T00:33:03.332Z,102497.38
2023-03-26T00:35:27.026Z,102497.01
2023-03-26T00:37:44.349Z,102494.95
2023-03-26T00:40:00.866Z,102494.00
2023-03-26T00:42:16.040Z,102492.27
2023-03-26T00:44:29.351Z,102488.17
2023-03-26T00:46:43.313Z,102487.10
2023-03-26T00:49:00.143Z,102491.02
2023-03-26T00:51:16.789Z,102485.91
2023-03-26T00:53:30.114Z,102489.81
2023-03-26T00:55:45.200Z,102489.30
2023-03-26T00:57:58.512Z,102486.17
2023-03-26T01:00:18.001Z,102487.83
2023-03-26T01:02:34.193Z,102489.67
2023-03-26T01:04:51.860Z,102487.70
2023-03-26T01:07:14.645Z,102487.88
2023-03-26T01:09:34.301Z,102487.55
2023-03-26T01:11:47.671Z,102490.86
2023-03-26T01:14:03.742Z,102489.38
2023-03-26T01:16:26.261Z,102488.66
2023-03-26T01:18:42.360Z,102494.17
2023-03-26T01:21:06.433Z,102492.77
2023-03-26T01:23:25.366Z,102496.13
2023-03-26T01:25:43.800Z,102494.55
2023-03-26T01:27:59.267Z,102486.88
2023-03-26T01:30:19.063Z,102493.48
2023-03-26T01:32:42.652Z,102491.16
2023-03-26T01:35:08.813Z,102492.73
2023-03-26T01:37:28.881Z,102495.31
2023-03-26T01:39:54.748Z,102501.44
2023-03-26T01:42:13.006Z,102496.14
2023-03-26T01:44:36.088Z,102497.21
2023-03-26T01:46:51.204Z,102499.78
2023-03-26T01:49:14.097Z,102501.52
2023-03-26T01:51:37.281Z,102501.95
2023-03-26T01:53:52.981Z,102500.70
2023-03-26T01:56:16.511Z,102502.27
2023-03-26T01:58:39.200Z,102500.27
2023-03-26T02:01:07.333Z,102500.95
2023-03-26T02:03:31.691Z,102501.26
2023-03-26T02:05:54.288Z,102500.77
2023-03-26T02:08:14.938Z,102500.81
2023-03-26T02:10:34.209Z,102497.83
2023-03-26T02:12:48.237Z,102499.23
2023-03-26T02:15:02.509Z,102498.40
2023-03-26T02:17:15.876Z,102497.22
2023-03-26T02:19:29.982Z,102492.21
2023-03-26T02:21:43.808Z,102496.02
2023-03-26T02:24:04.231Z,102494.02
2023-03-26T02:26:22.547Z,102490.92
2023-03-26T02:28:56.218Z,102500.77
2023-03-26T02:31:12.229Z,102497.85
2023-03-26T02:33:25.287Z,102497.23
2023-03-26T02:35:38.929Z,102499.77
2023-03-26T02:37:53.000Z,102499.30
2023-03-26T02:40:12.585Z,102499.23
2023-03-26T02:42:28.204Z,102497.73
2023-03-26T02:44:41.764Z,102501.70
2023-03-26T02:46:54.794Z,102507.07
2023-03-26T02:49:26.284Z,102504.90
2023-03-26T02:51:41.165Z,102505.17
2023-03-26T02:54:06.228Z,102506.29
2023-03-26T02:56:22.056Z,102508.14
2023-03-26T02:58:59.293Z,102504.17
2023-03-26T03:01:13.713Z,102502.98
2023-03-26T03:03:35.870Z,102503.27
2023-03-26T03:06:12.963Z,102501.59
2023-03-26T03:08:31.899Z,102503.63
2023-03-26T03:11:11.089Z,102504.04
2023-03-26T03:13:32.967Z,102505.65
2023-03-26T03:15:54.880Z,102506.92
2023-03-26T03:18:14.823Z,102503.61
2023-03-26T03:20:31.653Z,102505.39
2023-03-26T03:22:51.890Z,102507.36
2023-03-26T03:25:06.165Z,102505.02
2023-03-26T03:27:23.325Z,102506.86
2023-03-26T03:29:50.539Z,102507.63
2023-03-26T03:32:41.773Z,102509.62
2023-03-26T03:34:57.937Z,102507.71
2023-03-26T03:37:11.298Z,102508.48
2023-03-26T03:39:32.544Z,102512.19
2023-03-26T03:41:47.442Z,102513.65
2023-03-26T03:44:03.902Z,102515.60
2023-03-26T03:46:20.636Z,102512.43
2023-03-26T03:48:40.321Z,102528.86
2023-03-26T03:50:55.323Z,102522.98
2023-03-26T03:53:29.685Z,102521.65
2023-03-26T03:55:44.880Z,102531.57
2023-03-26T03:58:00.599Z,102531.96
2023-03-26T04:00:17.557Z,102527.27
2023-03-26T04:02:35.857Z,102527.88
2023-03-26T04:04:51.447Z,102531.80
2023-03-26T04:07:07.277Z,102531.16
2023-03-26T04:09:43.558Z,102536.58
2023-03-26T04:12:02.173Z,102537.05
2023-03-26T04:14:23.373Z,102539.05
2023-03-26T04:16:57.375Z,102536.51
2023-03-26T04:19:11.426Z,102542.19
2023-03-26T04:21:25.512Z,102543.83
2023-03-26T04:23:39.606Z,102548.27
2023-03-26T04:26:10.725Z,102545.96
2023-03-26T04:28:49.618Z,102541.74
2023-03-26T04:31:15.067Z,102540.74
2023-03-26T04:33:30.494Z,102543.61
2023-03-26T04:35:46.346Z,102545.95
2023-03-26T04:38:01.326Z,102547.55
2023-03-26T04:40:23.388Z,102547.95
2023-03-26T04:42:47.271Z,102543.97
2023-03-26T04:45:31.507Z,102545.80
2023-03-26T04:47:44.958Z,102548.66
2023-03-26T04:49:58.688Z,102542.02
2023-03-26T04:52:13.627Z,102548.18
2023-03-26T04:55:06.047Z,102561.02
2023-03-26T04:57:24.692Z,102566.70
2023-03-26T04:59:47.452Z,102573.00
2023-03-26T05:02:02.122Z,102575.59
2023-03-26T05:04:17.739Z,102575.49
2023-03-26T05:06:31.726Z,102574.87
2023-03-26T05:08:46.821Z,102578.13
2023-03-26T05:11:12.805Z,102574.34
2023-03-26T05:13:26.537Z,102573.90
2023-03-26T05:15:40.818Z,102577.68
2023-03-26T05:18:14.129Z,102575.98
2023-03-26T05:20:32.819Z,102572.86
2023-03-26T05:22:47.831Z,102579.77
2023-03-26T05:25:18.147Z,102578.95
2023-03-26T05:27:32.196Z,102585.14
2023-03-26T05:29:46.202Z,102587.30
2023-03-26T05:31:59.433Z,102589.08
2023-03-26T05:34:15.985Z,102593.36
2023-03-26T05:36:29.428Z,102592.69
2023-03-26T05:39:11.714Z,102588.88
2023-03-26T05:41:46.108Z,102599.83
2023-03-26T05:43:59.095Z,102596.17
2023-03-26T05:46:15.376Z,102597.79
2023-03-26T05:48:39.337Z,102597.78
2023-03-26T05:50:54.909Z,102597.60
2023-03-26T05:53:08.737Z,102599.56
2023-03-26T05:55:41.728Z,102595.40
2023-03-26T05:58:13.428Z,102600.89
2023-03-26T06:01:09.556Z,102599.52
2023-03-26T06:03:47.695Z,102604.59
2023-03-26T06:06:07.062Z,102606.88
2023-03-26T06:08:28.434Z,102603.19
2023-03-26T06:10:43.464Z,102605.86
2023-03-26T06:12:58.824Z,102604.33
2023-03-26T06:15:15.215Z,102601.90
2023-03-26T06:17:44.216Z,102598.58
2023-03-26T06:20:26.952Z,102600.55
2023-03-26T06:22:40.089Z,102597.59
2023-03-26T06:25:07.645Z,102598.98
2023-03-26T06:27:30.819Z,102598.46
2023-03-26T06:30:02.355Z,102597.59
2023-03-26T06:32:24.560Z,102596.39
2023-03-26T06:34:41.596Z,102597.62
2023-03-26T06:36:55.737Z,102598.16
2023-03-26T06:39:09.700Z,102602.03
2023-03-26T06:41:28.236Z,102601.35
2023-03-26T06:43:57.960Z,102606.42
2023-03-26T06:46:24.729Z,102602.56
2023-03-26T06:48:57.502Z,102598.35
2023-03-26T06:51:34.229Z,102599.58
2023-03-26T06:53:49.879Z,102600.80
2023-03-26T06:56:15.442Z,102599.90
2023-03-26T06:58:46.669Z,102599.35
2023-03-26T07:01:23.614Z,102600.57
2023-03-26T07:03:56.063Z,102601.64
2023-03-26T07:06:31.769Z,102599.87
2023-03-26T07:09:11.661Z,102603.73
2023-03-26T07:11:43.950Z,102604.08
2023-03-26T07:14:16.073Z,102603.89
2023-03-26T07:16:47.508Z,102598.44
2023-03-26T07:19:20.594Z,102592.81
2023-03-26T07:21:35.374Z,102593.52
2023-03-26T07:23:56.596Z,102593.17
2023-03-26T07:26:38.074Z,102588.57
2023-03-26T07:29:10.239Z,102594.17
2023-03-26T07:31:48.388Z,102594.52
2023-03-26T07:34:48.982Z,102592.05
2023-03-26T07:37:25.831Z,102590.65
2023-03-26T07:40:08.484Z,102590.13
2023-03-26T07:43:04.258Z,102591.54
2023-03-26T07:45:57.844Z,102588.03
2023-03-26T07:48:22.307Z,102588.77
2023-03-26T07:51:04.267Z,102590.55
2023-03-26T07:53:50.329Z,102591.81
2023-03-26T07:56:29.915Z,102588.88
2023-03-26T07:59:05.279Z,102590.84
2023-03-26T08:01:44.314Z,102588.60
2023-03-26T08:04:31.071Z,102584.38
2023-03-26T08:07:21.626Z,102582.98
2023-03-26T08:10:05.157Z,102580.86
2023-03-26T08:12:56.923Z,102580.38
2023-03-26T08:15:14.495Z,102576.33
2023-03-26T08:17:39.191Z,102576.71
2023-03-26T08:20:09.018Z,102575.50
2023-03-26T08:22:29.185Z,102578.14
2023-03-26T08:24:56.011Z,102577.79
2023-03-26T08:27:17.894Z,102572.89
2023-03-26T08:29:40.596Z,102572.55
2023-03-26T08:31:56.654Z,102575.38
2023-03-26T08:34:09.895Z,102573.98
2023-03-26T08:36:22.734Z,102576.81
2023-03-26T08:38:36.156Z,102573.82
2023-03-26T08:41:26.111Z,102574.85
2023-03-26T08:44:07.505Z,102576.98
2023-03-26T08:46:44.432Z,102575.04
2023-03-26T08:49:38.635Z,102577.51
2023-03-26T08:52:36.841Z,102579.12
2023-03-26T08:55:13.105Z,102576.84
2023-03-26T08:58:28.414Z,102578.23
2023-03-26T09:00:57.248Z,102576.67
2023-03-26T09:03:56.709Z,102570.36
2023-03-26T09:06:38.117Z,102568.61
2023-03-26T09:09:31.363Z,102567.73
2023-03-26T09:11:54.414Z,102567.38
2023-03-26T09:14:34.809Z,102564.22
2023-03-26T09:17:14.074Z,102562.11
2023-03-26T09:20:16.417Z,102559.72
2023-03-26T09:23:09.531Z,102558.31
2023-03-26T09:25:44.268Z,102558.84
2023-03-26T09:28:17.648Z,102561.11
2023-03-26T09:31:10.003Z,102561.98
2023-03-26T09:33:55.222Z,102564.92
2023-03-26T09:39:28.799Z,102561.04
2023-03-26T09:41:45.859Z,102564.55
2023-03-26T09:44:49.616Z,102567.02
2023-03-26T09:47:30.492Z,102567.55
2023-03-26T09:49:53.934Z,102569.47
2023-03-26T09:52:22.770Z,102565.60
2023-03-26T09:55:10.710Z,102567.34
2023-03-26T09:57:32.593Z,102566.10
2023-03-26T10:00:05.222Z,102563.45
2023-03-26T10:02:45.291Z,102565.34
2023-03-26T10:05:20.810Z,102564.94
2023-03-26T10:07:50.829Z,102568.16
2023-03-26T10:10:10.901Z,102562.63
2023-03-26T10:12:31.921Z,102560.63
2023-03-26T10:14:47.917Z,102556.91
2023-03-26T10:17:06.786Z,102550.15
2023-03-26T10:19:43.632Z,102545.87
2023-03-26T10:22:04.228Z,102536.32
2023-03-26T10:24:26.119Z,102528.51
2023-03-26T10:27:08.891Z,102541.29
2023-03-26T10:29:46.568Z,102551.10
2023-03-26T10:32:05.939Z,102551.92
2023-03-26T10:34:31.259Z,102555.98
2023-03-26T10:36:49.064Z,102555.88
2023-03-26T10:39:35.878Z,102553.89
2023-03-26T10:41:53.907Z,102556.49
2023-03-26T10:44:36.542Z,102551.56
2023-03-26T10:47:09.094Z,102546.37
2023-03-26T10:49:55.925Z,102549.67
2023-03-26T10:52:10.131Z,102555.92
2023-03-26T10:54:41.792Z,102550.72
2023-03-26T10:56:53.728Z,102549.70
2023-03-26T10:59:08.047Z,102548.92
2023-03-26T11:01:30.087Z,102544.83
2023-03-26T11:03:52.893Z,102547.58
2023-03-26T11:06:13.016Z,102548.05
2023-03-26T11:08:31.953Z,102548.08
2023-03-26T11:10:55.484Z,102547.27
2023-03-26T11:13:16.228Z,102548.00
2023-03-26T11:15:31.741Z,102547.48
2023-03-26T11:17:53.057Z,102546.15
2023-03-26T11:20:12.182Z,102548.98
2023-03-26T11:22:29.710Z,102552.90
2023-03-26T11:25:16.609Z,102551.70
2023-03-26T11:27:39.978Z,102549.09
2023-03-26T11:29:57.141Z,102546.89
2023-03-26T11:32:12.370Z,102545.44
2023-03-26T11:34:29.791Z,102543.23
2023-03-26T11:36:45.602Z,102536.59
2023-03-26T11:38:59.905Z,102532.61
2023-03-26T11:41:23.296Z,102541.29
2023-03-26T11:43:38.891Z,102542.89
2023-03-26T11:45:52.386Z,102540.27
2023-03-26T11:48:08.667Z,102543.80
2023-03-26T11:50:26.016Z,102546.09
2023-03-26T11:52:36.684Z,102553.19
2023-03-26T11:54:51.326Z,102550.05
2023-03-26T11:57:06.704Z,102546.59
2023-03-26T11:59:21.661Z,102549.95
2023-03-26T12:01:44.772Z,102554.73
2023-03-26T12:04:13.812Z,102559.31
2023-03-26T12:06:29.871Z,102554.35
2023-03-26T12:08:43.704Z,102553.89
2023-03-26T12:11:11.026Z,102554.10
2023-03-26T12:13:36.619Z,102551.31
2023-03-26T12:15:48.477Z,102553.13
2023-03-26T12:18:00.340Z,102549.65
2023-03-26T12:20:32.764Z,102547.42
2023-03-26T12:22:44.974Z,102547.81
2023-03-26T12:25:05.585Z,102549.45
2023-03-26T12:27:31.289Z,102546.67
2023-03-26T12:29:41.503Z,102542.33
2023-03-26T12:32:06.791Z,102541.34
2023-03-26T12:34:22.961Z,102542.12
2023-03-26T12:36:34.624Z,102533.73
2023-03-26T12:38:46.571Z,102534.14
2023-03-26T12:44:42.291Z,102530.14
2023-03-26T12:44:54.133Z,102532.52
2023-03-26T12:47:55.305Z,102534.80
2023-03-26T12:49:01.769Z,102537.02
2023-03-26T12:51:20.804Z,102541.63
2023-03-26T12:53:46.335Z,102543.65
2023-03-26T12:56:04.372Z,102547.41
2023-03-26T12:58:40.124Z,102549.70
2023-03-26T13:01:03.086Z,102555.17
2023-03-26T13:03:42.544Z,102552.88
2023-03-26T13:06:19.398Z,102555.17
2023-03-26T13:08:50.717Z,102563.14
2023-03-26T13:11:10.696Z,102556.33
2023-03-26T13:13:57.081Z,102557.80
2023-03-26T13:16:12.184Z,102555.84
2023-03-26T13:18:34.337Z,102557.41
2023-03-26T13:20:58.054Z,102553.63
2023-03-26T13:23:19.208Z,102552.10
2023-03-26T13:25:39.845Z,102552.88
2023-03-26T13:28:00.177Z,102553.61
2023-03-26T13:30:29.916Z,102553.60
2023-03-26T13:32:51.435Z,102550.77
2023-03-26T13:35:21.661Z,102553.02
2023-03-26T13:37:36.819Z,102551.45
2023-03-26T13:40:00.724Z,102554.05
2023-03-26T13:42:34.473Z,102550.88
2023-03-26T13:45:05.193Z,102551.94
2023-03-26T13:47:20.187Z,102548.94
2023-03-26T13:49:37.671Z,102545.59
2023-03-26T13:51:52.170Z,102544.02
2023-03-26T13:54:08.115Z,102543.54
2023-03-26T13:56:24.271Z,102543.06
2023-03-26T13:58:41.021Z,102543.60
2023-03-26T14:01:04.659Z,102552.77
2023-03-26T14:03:27.184Z,102552.09
2023-03-26T14:05:42.196Z,102553.05
2023-03-26T14:07:57.792Z,102553.08
2023-03-26T14:10:10.854Z,102554.56
2023-03-26T14:12:49.634Z,102560.42
2023-03-26T14:15:04.705Z,102563.61
2023-03-26T14:17:21.935Z,102562.02
2023-03-26T14:19:57.770Z,102562.86
2023-03-26T14:22:21.183Z,102566.60
2023-03-26T14:24:56.298Z,102568.70
2023-03-26T14:27:40.261Z,102573.84
2023-03-26T14:30:12.207Z,102575.63
2023-03-26T14:32:34.940Z,102581.27
2023-03-26T14:34:55.087Z,102582.39
2023-03-26T14:37:45.175Z,102582.43
2023-03-26T14:40:15.549Z,102582.24
2023-03-26T14:42:36.925Z,102581.90
2023-03-26T14:45:28.886Z,102580.33
2023-03-26T14:47:47.724Z,102581.55
2023-03-26T14:50:39.536Z,102579.81
2023-03-26T14:53:01.227Z,102572.43
2023-03-26T14:55:20.575Z,102574.54
2023-03-26T14:57:51.599Z,102578.91
2023-03-26T15:00:54.409Z,102576.08
2023-03-26T15:03:49.738Z,102575.17
2023-03-26T15:06:36.929Z,102577.74
2023-03-26T15:09:13.220Z,102577.52
2023-03-26T15:11:34.539Z,102579.71
2023-03-26T15:14:02.965Z,102580.69
2023-03-26T15:16:47.563Z,102578.14
2023-03-26T15:19:29.946Z,102581.02
2023-03-26T15:22:15.238Z,102581.47
2023-03-26T15:24:55.869Z,102581.92
2023-03-26T15:27:33.995Z,102586.48
2023-03-26T15:30:19.884Z,102586.96
2023-03-26T15:33:06.103Z,102590.98
2023-03-26T15:35:55.737Z,102593.77
2023-03-26T15:38:48.461Z,102595.04
2023-03-26T15:41:18.324Z,102598.41
2023-03-26T15:44:05.071Z,102606.26
2023-03-26T15:46:53.096Z,102608.02
2023-03-26T15:49:16.875Z,102608.85
2023-03-26T15:51:58.526Z,102605.43
2023-03-26T15:54:18.998Z,102596.19
2023-03-26T15:56:49.691Z,102597.11
2023-03-26T15:59:08.605Z,102602.03
2023-03-26T16:01:32.547Z,102604.30
2023-03-26T16:03:50.616Z,102603.05
2023-03-26T16:06:36.980Z,102602.49
2023-03-26T16:08:56.995Z,102604.75
2023-03-26T16:11:11.274Z,102605.96
2023-03-26T16:13:34.783Z,102608.36
2023-03-26T16:15:45.254Z,102606.91
2023-03-26T16:18:27.405Z,102604.63
2023-03-26T16:20:51.500Z,102605.59
2023-03-26T16:23:05.035Z,102609.23
2023-03-26T16:25:31.983Z,102609.84
2023-03-26T16:27:43.626Z,102609.41
2023-03-26T16:30:27.959Z,102612.86
2023-03-26T16:32:42.805Z,102612.45
2023-03-26T16:34:57.257Z,102612.63
2023-03-26T16:37:29.539Z,102618.62
2023-03-26T16:39:46.845Z,102616.70
2023-03-26T16:42:41.225Z,102612.86
2023-03-26T16:45:09.916Z,102618.65
2023-03-26T16:47:27.902Z,102618.08
2023-03-26T16:50:08.209Z,102619.75
2023-03-26T16:52:44.507Z,102620.69
2023-03-26T16:55:02.654Z,102615.95
2023-03-26T16:57:25.814Z,102619.13
2023-03-26T17:00:06.200Z,102620.10
2023-03-26T17:02:28.893Z,102618.25
2023-03-26T17:04:40.656Z,102615.63
2023-03-26T17:07:15.600Z,102615.45
2023-03-26T17:09:35.696Z,102621.85
2023-03-26T17:11:58.117Z,102620.45
2023-03-26T17:14:24.574Z,102621.34
2023-03-26T17:16:39.467Z,102622.23
2023-03-26T17:19:01.122Z,102616.05
2023-03-26T17:21:17.958Z,102616.30
2023-03-26T17:23:51.643Z,102624.65
2023-03-26T17:26:13.324Z,102623.61
2023-03-26T17:28:52.136Z,102627.42
2023-03-26T17:31:08.164Z,102627.99
2023-03-26T17:33:30.193Z,102628.09
2023-03-26T17:35:47.418Z,102628.67
2023-03-26T17:37:58.609Z,102628.56
2023-03-26T17:40:50.405Z,102629.20
2023-03-26T17:43:11.541Z,102630.19
2023-03-26T17:45:25.575Z,102628.14
2023-03-26T17:47:41.685Z,102632.26
2023-03-26T17:49:53.285Z,102634.80
2023-03-26T17:52:07.086Z,102634.27
2023-03-26T17:54:25.124Z,102634.96
2023-03-26T17:56:38.102Z,102637.22
2023-03-26T17:58:48.720Z,102631.48
2023-03-26T18:01:09.427Z,102630.39
2023-03-26T18:03:24.755Z,102625.52
2023-03-26T18:05:35.682Z,102622.90
2023-03-26T18:08:15.706Z,102622.39
2023-03-26T18:10:46.016Z,102622.60
2023-03-26T18:13:11.180Z,102621.52
2023-03-26T18:15:44.934Z,102620.08
2023-03-26T18:18:04.652Z,102626.82
2023-03-26T18:20:25.172Z,102628.06
2023-03-26T18:22:35.762Z,102631.77
2023-03-26T18:24:48.097Z,102629.08
2023-03-26T18:27:01.564Z,102630.73
2023-03-26T18:29:21.889Z,102632.27
2023-03-26T18:31:33.609Z,102629.76
2023-03-26T18:33:51.894Z,102630.84
2023-03-26T18:36:02.646Z,102635.44
2023-03-26T18:38:36.085Z,102638.27
2023-03-26T18:40:50.185Z,102640.23
2023-03-26T18:43:01.575Z,102640.02
2023-03-26T18:45:21.197Z,102639.95
2023-03-26T18:47:37.226Z,102641.23
2023-03-26T18:49:49.584Z,102641.16
2023-03-26T18:52:00.244Z,102652.14
2023-03-26T18:54:17.627Z,102653.45
2023-03-26T18:56:37.086Z,102646.23
2023-03-26T18:58:54.395Z,102647.14
2023-03-26T19:01:08.566Z,102647.84
2023-03-26T19:03:25.532Z,102648.32
2023-03-26T19:05:37.858Z,102647.10
2023-03-26T19:07:49.031Z,102651.96
2023-03-26T19:09:59.085Z,102649.70
2023-03-26T19:12:17.972Z,102650.73
2023-03-26T19:14:36.015Z,102652.07
2023-03-26T19:16:48.014Z,102652.50
2023-03-26T19:19:00.444Z,102652.67
2023-03-26T19:21:11.413Z,102653.88
2023-03-26T19:23:24.054Z,102655.05
2023-03-26T19:25:33.731Z,102658.00
2023-03-26T19:27:43.586Z,102653.73
2023-03-26T19:29:54.004Z,102651.73
2023-03-26T19:32:17.206Z,102651.16
2023-03-26T19:34:33.868Z,102651.20
2023-03-26T19:36:58.571Z,102644.20
2023-03-26T19:39:24.284Z,102646.11
2023-03-26T19:41:44.226Z,102643.48
2023-03-26T19:46:26.694Z,102646.27
2023-03-26T19:48:46.733Z,102646.36
2023-03-26T19:51:06.594Z,102647.59
2023-03-26T19:51:18.146Z,102641.77
2023-03-26T19:53:24.751Z,102642.04
2023-03-26T19:55:34.908Z,102643.80
2023-03-26T19:57:45.830Z,102644.23
2023-03-26T19:59:57.536Z,102642.38
2023-03-26T20:02:11.852Z,102636.87
2023-03-26T20:04:21.780Z,102637.16
2023-03-26T20:06:42.551Z,102637.28
2023-03-26T20:08:53.610Z,102634.66
2023-03-26T20:11:03.951Z,102637.95
2023-03-26T20:13:19.352Z,102636.11
2023-03-26T20:15:32.162Z,102636.73
2023-03-26T20:17:43.641Z,102636.15
2023-03-26T20:19:54.801Z,102633.53
2023-03-26T20:22:06.275Z,102634.88
2023-03-26T20:24:16.329Z,102636.17
2023-03-26T20:26:27.292Z,102637.94
2023-03-26T20:28:47.327Z,102639.06
2023-03-26T20:30:58.115Z,102644.17
2023-03-26T20:33:13.294Z,102642.65
2023-03-26T20:35:35.896Z,102639.86
2023-03-26T20:37:47.396Z,102640.19
2023-03-26T20:39:56.974Z,102641.04
2023-03-26T20:42:07.962Z,102642.29
2023-03-26T20:44:19.290Z,102639.67
2023-03-26T20:46:30.686Z,102638.44
2023-03-26T20:48:41.844Z,102641.06
2023-03-26T20:50:51.944Z,102642.23
2023-03-26T20:53:03.473Z,102637.70
2023-03-26T20:55:17.059Z,102643.85
2023-03-26T20:57:26.939Z,102642.98
2023-03-26T20:59:37.008Z,102637.94
2023-03-26T21:01:47.943Z,102639.08
2023-03-26T21:03:58.538Z,102637.21
2023-03-26T21:06:13.846Z,102631.81
2023-03-26T21:08:30.731Z,102639.15
2023-03-26T21:10:41.861Z,102631.84
2023-03-26T21:12:59.145Z,102633.34
2023-03-26T21:15:22.310Z,102637.28
2023-03-26T21:17:34.739Z,102641.91
2023-03-26T21:19:46.596Z,102650.52
2023-03-26T21:22:05.653Z,102653.82
2023-03-26T21:24:23.362Z,102659.75
2023-03-26T21:26:41.640Z,102659.76
2023-03-26T21:28:52.941Z,102659.65
2023-03-26T21:31:05.332Z,102661.66
2023-03-26T21:33:16.062Z,102663.95
2023-03-26T21:35:27.684Z,102664.51
2023-03-26T21:37:38.844Z,102667.61
2023-03-26T21:39:49.307Z,102668.70
2023-03-26T21:42:04.888Z,102666.79
2023-03-26T21:44:16.954Z,102665.84
2023-03-26T21:46:27.983Z,102667.82
2023-03-26T21:48:39.454Z,102661.39
2023-03-26T21:50:50.566Z,102663.95
2023-03-26T21:53:01.633Z,102660.67
2023-03-26T21:55:15.842Z,102655.94
2023-03-26T21:57:48.027Z,102660.30
2023-03-26T22:00:15.346Z,102660.02
2023-03-26T22:02:32.498Z,102665.16
2023-03-26T22:04:48.474Z,102669.67
2023-03-26T22:07:04.856Z,102679.33
2023-03-26T22:09:18.496Z,102680.88
2023-03-26T22:11:31.167Z,102672.35
2023-03-26T22:13:41.587Z,102661.48
2023-03-26T22:15:51.875Z,102659.36
2023-03-26T22:18:05.671Z,102661.23
2023-03-26T22:20:16.536Z,102664.30
2023-03-26T22:22:28.828Z,102664.59
2023-03-26T22:24:39.546Z,102657.33
2023-03-26T22:26:49.253Z,102658.09
2023-03-26T22:28:58.980Z,102654.12
2023-03-26T22:31:12.657Z,102654.92
2023-03-26T22:33:22.439Z,102650.88
2023-03-26T22:35:32.135Z,102651.02
2023-03-26T22:37:42.426Z,102654.89
2023-03-26T22:39:52.312Z,102656.63
2023-03-26T22:42:04.442Z,102660.13
2023-03-26T22:46:31.384Z,102662.93
2023-03-26T22:48:41.987Z,102666.66
2023-03-26T22:51:01.566Z,102667.47
2023-03-26T22:53:11.475Z,102666.45
2023-03-26T22:55:28.353Z,102663.88
2023-03-26T22:57:39.137Z,102664.88
2023-03-26T22:59:48.851Z,102665.46
2023-03-26T23:01:59.073Z,102659.77
2023-03-26T23:04:09.121Z,102661.08
2023-03-26T23:06:19.091Z,102660.23
2023-03-26T23:08:29.287Z,102658.49
2023-03-26T23:10:39.106Z,102653.80
2023-03-26T23:12:49.258Z,102650.69
2023-03-26T23:14:58.775Z,102650.56
2023-03-26T23:17:14.960Z,102649.73
2023-03-26T23:19:26.043Z,102653.86
2023-03-26T23:21:37.208Z,102649.77
2023-03-26T23:23:47.797Z,102648.05
2023-03-26T23:25:59.438Z,102646.00
2023-03-26T23:28:10.386Z,102645.05
2023-03-26T23:30:21.301Z,102642.48
2023-03-26T23:32:31.347Z,102638.90
2023-03-26T23:34:52.042Z,102640.34
2023-03-26T23:37:02.649Z,102638.85
2023-03-26T23:39:12.841Z,102630.23
2023-03-26T23:41:25.979Z,102629.55
2023-03-26T23:43:35.942Z,102631.90
2023-03-26T23:45:47.666Z,102628.77
2023-03-26T23:47:57.991Z,102629.86
2023-03-26T23:50:10.272Z,102628.08
2023-03-26T23:52:20.647Z,102626.66
2023-03-26T23:54:31.086Z,102624.75
2023-03-26T23:56:40.636Z,102625.30
2023-03-26T23:58:50.469Z,102625.23
